Shannon, Ireland

4:17 PM GMT on March 04, 2015 (GMT +0000)
Shannon | Change Station
CLOSE
Current Station
Airport
Location: Shannon,
Elevation: 66 ft
Nearby Weather Stations

Elev 66 ft 52.70 °N, 8.92 °W | Updated 17 minutes ago

Scattered Clouds
Scattered Clouds
50 °F
Feels Like 50 °F
N
10
Wind Variable Wind from SW

Today
High -- | Low -- °F
--% Chance of Precip.
Yesterday
High -- | Low -- °F
Precip. -- in
7:16 AM 6:19 PM
Waxing Gibbous, 99% visible
Pressure 30.57 in
Visibility 6.2 miles
Clouds Few 2200 ft
Scattered Clouds 10000 ft
Dew Point 39 °F
Humidity 66%
Rainfall 0.00 in
Snow Depth Not available.
UV 1 out of 12
Pollen Not available.
Air Quality Not available.
Flu Activity Not available.
METAR EINN 041600Z 23009KT 9999 FEW022 SCT100 10/04 Q1035 NOSIG

More Conditions Fewer Conditions

Pressure 30.57 in
Visibility 6.2 miles
Clouds Few 2200 ft
Scattered Clouds 10000 ft
Dew Point 39 °F
Humidity 66%
Rainfall 0.00 in
Snow Depth Not available.
UV 1 out of 12
Pollen Not available.
Air Quality Not available.
Flu Activity Not available.
METAR EINN 041600Z 23009KT 9999 FEW022 SCT100 10/04 Q1035 NOSIG

More Conditions Fewer Conditions

10-Day Weather Forecast

Almanac

Astronomy

Mar. 04, 2015 Rise Set
Actual Time
Civil Twilight
Nautical Twilight
Astronomical Twilight
Moon
Length of Visible Light
Length of Day
Tomorrow will be .
, % of the Moon is Illuminated

Today's Extremes

Country Highs Country Lows

Community

WunderPhotos

Upload Photos

1,802,500 photos uploaded!

WunderBlogs® & News

Nearby

Air Quality

  Air Quality AQ Index Pollutant
Not available.

Snow Depth

Station Depth Elevation

Earthquake Activity

City Distance Mag. Time & Date
Minimum magnitude displayed is 2.5.

Coastal Water Temperatures

Place Temperature

Nearby Weather Stations